createdAt,value
2018-04-29T00:01:44.945Z,99.90
2018-04-29T00:04:13.329Z,99.90
2018-04-29T00:06:41.725Z,99.90
2018-04-29T00:09:09.329Z,99.90
2018-04-29T00:11:36.953Z,99.90
2018-04-29T00:14:04.590Z,99.90
2018-04-29T00:16:32.195Z,99.90
2018-04-29T00:18:59.858Z,99.90
2018-04-29T00:21:27.485Z,99.90
2018-04-29T00:23:55.138Z,99.90
2018-04-29T00:26:22.767Z,99.90
2018-04-29T00:28:50.716Z,99.90
2018-04-29T00:31:19.090Z,99.90
2018-04-29T00:33:47.455Z,99.90
2018-04-29T00:36:15.102Z,99.90
2018-04-29T00:38:42.722Z,99.90
2018-04-29T00:41:10.361Z,99.90
2018-04-29T00:43:37.979Z,99.90
2018-04-29T00:46:05.617Z,99.90
2018-04-29T00:48:33.257Z,99.90
2018-04-29T00:51:01.665Z,99.90
2018-04-29T00:53:30.061Z,99.90
2018-04-29T00:55:57.668Z,99.90
2018-04-29T00:58:25.303Z,99.90
2018-04-29T01:00:52.976Z,99.90
2018-04-29T01:03:20.552Z,99.90
2018-04-29T01:05:48.158Z,99.90
2018-04-29T01:08:15.836Z,99.90
2018-04-29T01:10:44.234Z,99.90
2018-04-29T01:13:11.857Z,99.90
2018-04-29T01:15:39.481Z,99.90
2018-04-29T01:18:07.089Z,99.90
2018-04-29T01:20:34.723Z,99.90
2018-04-29T01:23:02.351Z,99.90
2018-04-29T01:25:30.787Z,99.90
2018-04-29T01:27:58.421Z,99.90
2018-04-29T01:30:26.025Z,99.90
2018-04-29T01:32:53.634Z,99.90
2018-04-29T01:35:22.325Z,99.90
2018-04-29T01:37:50.692Z,99.90
2018-04-29T01:40:18.304Z,99.90
2018-04-29T01:42:45.931Z,99.90
2018-04-29T01:45:14.315Z,99.90
2018-04-29T01:47:41.936Z,99.90
2018-04-29T01:50:09.533Z,99.90
2018-04-29T01:52:37.947Z,99.90
2018-04-29T01:55:06.357Z,99.90
2018-04-29T01:57:33.950Z,99.90
2018-04-29T02:00:01.591Z,99.90
2018-04-29T02:02:29.283Z,99.90
2018-04-29T02:04:56.925Z,99.90
2018-04-29T02:07:24.520Z,99.90
2018-04-29T02:09:52.145Z,99.90
2018-04-29T02:12:19.781Z,99.90
2018-04-29T02:14:48.141Z,99.90
2018-04-29T02:17:15.745Z,99.90
2018-04-29T02:19:43.368Z,99.90
2018-04-29T02:22:11.741Z,99.90
2018-04-29T02:24:39.376Z,99.90
2018-04-29T02:27:06.987Z,99.90
2018-04-29T02:29:34.626Z,99.90
2018-04-29T02:32:02.257Z,99.90
2018-04-29T02:34:30.622Z,99.90
2018-04-29T02:36:58.221Z,99.90
2018-04-29T02:39:25.853Z,99.90
2018-04-29T02:41:54.234Z,99.90
2018-04-29T02:44:21.863Z,99.90
2018-04-29T02:46:49.493Z,99.90
2018-04-29T02:49:18.677Z,99.90
2018-04-29T02:51:46.335Z,99.90
2018-04-29T02:54:13.948Z,99.90
2018-04-29T02:56:41.577Z,99.90
2018-04-29T02:59:09.954Z,99.90
2018-04-29T03:01:37.578Z,99.90
2018-04-29T03:04:05.193Z,99.90
2018-04-29T03:06:33.605Z,99.90
2018-04-29T03:09:01.274Z,99.90
2018-04-29T03:11:28.863Z,99.90
2018-04-29T03:13:56.736Z,99.90
2018-04-29T03:16:24.338Z,99.90
2018-04-29T03:18:52.707Z,99.90
2018-04-29T03:21:20.335Z,99.90
2018-04-29T03:23:47.926Z,99.90
2018-04-29T03:26:15.552Z,99.90
2018-04-29T03:28:43.153Z,99.90
2018-04-29T03:31:10.740Z,99.90
2018-04-29T03:33:38.375Z,99.90
2018-04-29T03:36:05.970Z,99.90
2018-04-29T03:38:33.620Z,99.90
2018-04-29T03:41:01.280Z,99.90
2018-04-29T03:43:28.909Z,99.90
2018-04-29T03:45:56.534Z,99.90
2018-04-29T03:48:24.177Z,99.90
2018-04-29T03:50:51.804Z,99.90
2018-04-29T03:53:19.412Z,99.90
2018-04-29T03:55:47.232Z,99.90
2018-04-29T03:58:27.489Z,99.90
2018-04-29T04:01:07.591Z,99.90
2018-04-29T04:03:47.894Z,99.90
2018-04-29T04:06:16.305Z,99.90
2018-04-29T04:08:43.932Z,99.90
2018-04-29T04:11:12.335Z,99.90
2018-04-29T04:13:39.976Z,99.90
2018-04-29T04:16:07.580Z,99.90
2018-04-29T04:18:35.184Z,99.90
2018-04-29T04:21:02.808Z,99.90
2018-04-29T04:23:30.505Z,99.90
2018-04-29T04:25:58.133Z,99.90
2018-04-29T04:28:25.753Z,99.90
2018-04-29T04:30:53.354Z,99.90
2018-04-29T04:33:21.752Z,99.90
2018-04-29T04:35:49.372Z,99.90
2018-04-29T04:38:16.967Z,99.90
2018-04-29T04:40:45.376Z,99.90
2018-04-29T04:43:12.988Z,99.90
2018-04-29T04:45:40.604Z,99.90
2018-04-29T04:48:08.184Z,99.90
2018-04-29T04:50:35.864Z,99.90
2018-04-29T04:53:03.435Z,99.90
2018-04-29T04:55:31.028Z,99.90
2018-04-29T04:57:58.908Z,99.90
2018-04-29T05:00:26.507Z,99.90
2018-04-29T05:02:54.094Z,99.90
2018-04-29T05:05:21.725Z,99.90
2018-04-29T05:07:50.126Z,99.90
2018-04-29T05:10:17.739Z,99.90
2018-04-29T05:12:45.369Z,99.90
2018-04-29T05:15:13.012Z,99.90
2018-04-29T05:17:40.628Z,99.90
2018-04-29T05:20:08.255Z,99.90
2018-04-29T05:22:35.894Z,99.90
2018-04-29T05:25:04.972Z,99.90
2018-04-29T05:27:32.600Z,99.90
2018-04-29T05:30:00.212Z,99.90
2018-04-29T05:32:27.834Z,99.90
2018-04-29T05:34:56.259Z,99.90
2018-04-29T05:37:24.939Z,99.90
2018-04-29T05:39:52.547Z,99.90
2018-04-29T05:42:20.143Z,99.90
2018-04-29T05:44:48.049Z,99.90
2018-04-29T05:47:15.648Z,99.90
2018-04-29T05:49:43.317Z,99.90
2018-04-29T05:52:10.973Z,99.90
2018-04-29T05:54:39.387Z,99.90
2018-04-29T05:57:07.941Z,99.90
2018-04-29T05:59:36.347Z,99.90
2018-04-29T06:02:03.986Z,99.90
2018-04-29T06:04:32.400Z,99.90
2018-04-29T06:07:00.061Z,99.90
2018-04-29T06:09:27.732Z,99.90
2018-04-29T06:11:55.498Z,99.90
2018-04-29T06:14:23.158Z,99.90
2018-04-29T06:16:51.591Z,99.90
2018-04-29T06:19:19.316Z,99.90
2018-04-29T06:21:47.391Z,99.90
2018-04-29T06:24:15.037Z,99.90
2018-04-29T06:26:43.457Z,99.90
2018-04-29T06:29:11.425Z,99.90
2018-04-29T06:31:39.183Z,99.90
2018-04-29T06:34:06.848Z,99.90
2018-04-29T06:36:34.487Z,99.90
2018-04-29T06:39:02.234Z,99.90
2018-04-29T06:41:30.019Z,99.90
2018-04-29T06:43:57.668Z,99.90
2018-04-29T06:46:25.387Z,99.90
2018-04-29T06:48:53.023Z,99.90
2018-04-29T06:51:21.458Z,99.90
2018-04-29T06:53:49.093Z,99.90
2018-04-29T06:56:17.499Z,99.90
2018-04-29T06:58:45.155Z,99.90
2018-04-29T07:01:12.822Z,99.90
2018-04-29T07:03:42.457Z,99.90
2018-04-29T07:06:10.140Z,99.90
2018-04-29T07:08:37.809Z,99.90
2018-04-29T07:11:05.442Z,99.90
2018-04-29T07:13:33.085Z,99.90
2018-04-29T07:16:01.510Z,99.90
2018-04-29T07:18:29.157Z,99.90
2018-04-29T07:20:59.363Z,99.90
2018-04-29T07:23:27.975Z,99.90
2018-04-29T07:25:57.469Z,99.90
2018-04-29T07:28:25.064Z,99.90
2018-04-29T07:30:52.717Z,99.90
2018-04-29T07:33:24.370Z,99.90
2018-04-29T07:35:52.460Z,99.90
2018-04-29T07:38:20.118Z,99.90
2018-04-29T07:40:47.758Z,99.90
2018-04-29T07:43:15.403Z,99.90
2018-04-29T07:45:43.090Z,99.90
2018-04-29T07:48:11.492Z,99.90
2018-04-29T07:50:39.906Z,99.90
2018-04-29T07:53:07.562Z,99.90
2018-04-29T07:55:35.216Z,99.90
2018-04-29T07:58:03.256Z,99.90
2018-04-29T08:00:30.909Z,99.90
2018-04-29T08:02:58.533Z,99.90
2018-04-29T08:05:26.492Z,99.90
2018-04-29T08:07:54.873Z,99.90
2018-04-29T08:10:23.263Z,99.90
2018-04-29T08:12:51.665Z,99.90
2018-04-29T08:15:19.288Z,99.90
2018-04-29T08:17:46.907Z,99.90
2018-04-29T08:20:14.528Z,99.90
2018-04-29T08:22:42.905Z,99.90
2018-04-29T08:25:11.322Z,99.90
2018-04-29T08:27:38.949Z,99.90
2018-04-29T08:30:06.710Z,99.90
2018-04-29T08:32:34.314Z,99.90
2018-04-29T08:35:02.697Z,99.90
2018-04-29T08:37:30.348Z,99.90
2018-04-29T08:39:57.991Z,99.90
2018-04-29T08:42:26.527Z,99.90
2018-04-29T08:44:54.177Z,99.90
2018-04-29T08:47:22.160Z,99.90
2018-04-29T08:49:50.529Z,99.90
2018-04-29T08:52:18.892Z,99.90
2018-04-29T08:54:46.521Z,99.90
2018-04-29T08:57:14.121Z,99.90
2018-04-29T08:59:41.762Z,99.90
2018-04-29T09:02:09.379Z,99.90
2018-04-29T09:04:38.424Z,99.90
2018-04-29T09:07:06.035Z,99.90
2018-04-29T09:09:34.392Z,99.90
2018-04-29T09:12:02.016Z,99.90
2018-04-29T09:14:29.602Z,99.90
2018-04-29T09:16:57.290Z,99.90
2018-04-29T09:19:24.843Z,99.90
2018-04-29T09:21:52.447Z,99.90
2018-04-29T09:24:20.857Z,99.90
2018-04-29T09:26:48.502Z,99.90
2018-04-29T09:29:16.883Z,99.90
2018-04-29T09:31:45.250Z,99.40
2018-04-29T09:34:13.694Z,99.90
2018-04-29T09:36:41.620Z,99.90
2018-04-29T09:39:09.998Z,97.60
2018-04-29T09:41:37.592Z,97.60
2018-04-29T09:44:05.225Z,94.30
2018-04-29T09:46:32.850Z,95.60
2018-04-29T09:49:00.481Z,95.70
2018-04-29T09:51:28.824Z,86.90
2018-04-29T09:53:56.406Z,86.90
2018-04-29T09:56:24.059Z,92.20
2018-04-29T09:58:51.799Z,93.50
2018-04-29T10:01:25.254Z,83.10
2018-04-29T10:03:52.865Z,88.40
2018-04-29T10:06:20.482Z,82.40
2018-04-29T10:08:48.850Z,81.20
2018-04-29T10:11:16.458Z,80.80
2018-04-29T10:13:44.101Z,72.70
2018-04-29T10:16:12.478Z,69.60
2018-04-29T10:18:40.125Z,69.50
2018-04-29T10:21:07.750Z,71.70
2018-04-29T10:23:35.360Z,64.30
2018-04-29T10:26:03.002Z,65.00
2018-04-29T10:28:30.639Z,61.50
2018-04-29T10:30:58.288Z,65.00
2018-04-29T10:33:26.671Z,60.20
2018-04-29T10:35:55.016Z,63.50
2018-04-29T10:38:22.921Z,63.10
2018-04-29T10:40:51.297Z,59.10
2018-04-29T10:43:19.665Z,60.20
2018-04-29T10:45:47.283Z,60.40
2018-04-29T10:48:14.867Z,65.10
2018-04-29T10:50:42.527Z,57.60
2018-04-29T10:53:10.128Z,59.80
2018-04-29T10:55:37.739Z,56.50
2018-04-29T10:58:05.320Z,59.50
2018-04-29T11:00:32.932Z,56.40
2018-04-29T11:03:01.552Z,57.40
2018-04-29T11:05:29.895Z,58.20
2018-04-29T11:07:57.792Z,58.20
2018-04-29T11:10:26.135Z,57.00
2018-04-29T11:12:53.707Z,56.40
2018-04-29T11:15:21.611Z,54.40
2018-04-29T11:17:49.955Z,56.20
2018-04-29T11:20:17.543Z,56.10
2018-04-29T11:22:45.180Z,54.80
2018-04-29T11:25:12.814Z,57.10
2018-04-29T11:27:40.441Z,54.20
2018-04-29T11:30:08.082Z,56.00
2018-04-29T11:32:35.700Z,54.70
2018-04-29T11:35:03.349Z,55.30
2018-04-29T11:37:30.932Z,54.40
2018-04-29T11:39:59.275Z,56.30
2018-04-29T11:42:26.895Z,56.30
2018-04-29T11:44:54.519Z,52.90
2018-04-29T11:47:22.185Z,51.70
2018-04-29T11:49:49.772Z,52.50
2018-04-29T11:52:18.205Z,52.10
2018-04-29T11:54:45.785Z,52.10
2018-04-29T11:57:13.429Z,52.60
2018-04-29T11:59:41.068Z,51.20
2018-04-29T12:02:08.656Z,53.70
2018-04-29T12:04:36.268Z,49.60
2018-04-29T12:07:04.657Z,51.50
2018-04-29T12:09:32.252Z,51.10
2018-04-29T12:12:00.033Z,52.90
2018-04-29T12:14:27.796Z,53.70
2018-04-29T12:16:55.600Z,54.70
2018-04-29T12:19:23.263Z,54.00
2018-04-29T12:21:50.889Z,52.20
2018-04-29T12:24:18.479Z,52.30
2018-04-29T12:26:46.108Z,54.60
2018-04-29T12:29:14.509Z,49.50
2018-04-29T12:31:42.943Z,51.70
2018-04-29T12:34:10.577Z,51.70
2018-04-29T12:36:38.197Z,50.20
2018-04-29T12:39:06.800Z,49.60
2018-04-29T12:41:35.207Z,52.20
2018-04-29T12:44:03.148Z,52.20
2018-04-29T12:46:31.526Z,51.00
2018-04-29T12:48:59.516Z,51.00
2018-04-29T12:51:27.139Z,49.70
2018-04-29T12:53:54.778Z,50.40
2018-04-29T12:56:22.417Z,52.40
2018-04-29T12:58:50.828Z,50.20
2018-04-29T13:01:18.426Z,50.30
2018-04-29T13:03:47.191Z,48.60
2018-04-29T13:06:14.836Z,48.60
2018-04-29T13:08:42.795Z,48.30
2018-04-29T13:11:11.205Z,50.60
2018-04-29T13:13:39.323Z,50.60
2018-04-29T13:16:06.940Z,49.80
2018-04-29T13:18:34.531Z,47.40
2018-04-29T13:21:02.164Z,48.80
2018-04-29T13:23:29.769Z,50.00
2018-04-29T13:25:57.401Z,49.80
2018-04-29T13:28:25.030Z,49.80
2018-04-29T13:30:52.693Z,49.70
2018-04-29T13:33:20.294Z,49.70
2018-04-29T13:35:47.983Z,47.70
2018-04-29T13:38:16.347Z,49.00
2018-04-29T13:40:43.931Z,48.90
2018-04-29T13:43:11.541Z,47.10
2018-04-29T13:45:40.183Z,47.80
2018-04-29T13:48:07.849Z,47.90
2018-04-29T13:50:35.443Z,49.80
2018-04-29T13:53:03.393Z,49.80
2018-04-29T13:55:31.043Z,49.70
2018-04-29T13:57:58.644Z,47.50
2018-04-29T14:00:26.276Z,49.90
2018-04-29T14:02:53.856Z,47.50
2018-04-29T14:05:21.481Z,50.00
2018-04-29T14:07:49.091Z,49.70
2018-04-29T14:10:16.693Z,49.30
2018-04-29T14:12:45.103Z,47.80
2018-04-29T14:15:12.696Z,47.70
2018-04-29T14:17:41.211Z,48.90
2018-04-29T14:20:09.168Z,48.70
2018-04-29T14:22:36.834Z,47.00
2018-04-29T14:25:04.516Z,49.00
2018-04-29T14:27:32.179Z,48.20
2018-04-29T14:29:59.776Z,48.90
2018-04-29T14:32:28.209Z,47.50
2018-04-29T14:34:55.840Z,47.50
2018-04-29T14:37:23.553Z,48.20
2018-04-29T14:39:51.232Z,49.20
2018-04-29T14:42:18.849Z,48.60
2018-04-29T14:44:46.454Z,49.10
2018-04-29T14:47:14.096Z,49.60
2018-04-29T14:49:41.727Z,48.40
2018-04-29T14:52:09.361Z,50.00
2018-04-29T14:54:36.963Z,50.10
2018-04-29T14:57:04.572Z,50.10
2018-04-29T14:59:32.203Z,50.50
2018-04-29T15:01:59.811Z,52.00
2018-04-29T15:04:27.463Z,50.60
2018-04-29T15:06:55.195Z,52.50
2018-04-29T15:09:22.804Z,51.50
2018-04-29T15:11:50.469Z,50.90
2018-04-29T15:14:18.088Z,52.90
2018-04-29T15:16:46.769Z,54.80
2018-04-29T15:19:15.179Z,54.20
2018-04-29T15:21:42.789Z,53.50
2018-04-29T15:24:10.412Z,55.00
2018-04-29T15:26:38.075Z,55.20
2018-04-29T15:29:05.705Z,56.00
2018-04-29T15:31:33.343Z,56.10
2018-04-29T15:34:00.962Z,56.20
2018-04-29T15:36:29.337Z,56.90
2018-04-29T15:38:58.045Z,58.00
2018-04-29T15:41:26.214Z,58.00
2018-04-29T15:43:54.598Z,57.90
2018-04-29T15:46:23.023Z,57.40
2018-04-29T15:48:50.626Z,57.40
2018-04-29T15:51:19.916Z,59.30
2018-04-29T15:53:47.520Z,59.30
2018-04-29T15:56:15.992Z,60.70
2018-04-29T15:58:43.618Z,60.60
2018-04-29T16:01:11.197Z,59.90
2018-04-29T16:03:38.899Z,62.30
2018-04-29T16:06:06.505Z,62.60
2018-04-29T16:08:34.403Z,66.10
2018-04-29T16:11:01.992Z,67.30
2018-04-29T16:13:30.372Z,74.20
2018-04-29T16:15:58.074Z,74.20
2018-04-29T16:18:25.709Z,74.20
2018-04-29T16:20:53.300Z,76.20
2018-04-29T16:23:21.507Z,78.10
2018-04-29T16:25:49.918Z,82.70
2018-04-29T16:28:17.539Z,82.90
2018-04-29T16:30:45.132Z,83.80
2018-04-29T16:33:12.967Z,85.10
2018-04-29T16:35:40.557Z,85.60
2018-04-29T16:38:08.216Z,89.70
2018-04-29T16:40:36.560Z,95.00
2018-04-29T16:43:04.236Z,95.00
2018-04-29T16:45:31.870Z,97.40
2018-04-29T16:47:59.451Z,98.10
2018-04-29T16:50:27.077Z,99.90
2018-04-29T16:52:54.703Z,99.90
2018-04-29T16:55:23.159Z,99.90
2018-04-29T16:57:50.731Z,99.90
2018-04-29T17:00:18.322Z,99.90
2018-04-29T17:02:45.946Z,99.90
2018-04-29T17:05:13.532Z,99.90
2018-04-29T17:07:41.254Z,99.90
2018-04-29T17:10:08.892Z,99.90
2018-04-29T17:12:36.546Z,99.90
2018-04-29T17:15:04.894Z,99.90
2018-04-29T17:17:32.514Z,99.90
2018-04-29T17:20:00.145Z,99.90
2018-04-29T17:22:27.753Z,99.90
2018-04-29T17:24:55.391Z,99.90
2018-04-29T17:27:23.793Z,99.90
2018-04-29T17:29:51.456Z,99.90
2018-04-29T17:32:19.055Z,99.90
2018-04-29T17:34:46.675Z,99.90
2018-04-29T17:37:15.378Z,99.90
2018-04-29T17:39:43.755Z,99.90
2018-04-29T17:42:12.142Z,99.90
2018-04-29T17:44:39.775Z,99.90
2018-04-29T17:47:07.395Z,99.90
2018-04-29T17:49:34.997Z,99.90
2018-04-29T17:52:02.642Z,99.90
2018-04-29T17:54:30.273Z,99.90
2018-04-29T17:56:58.687Z,99.90
2018-04-29T17:59:26.344Z,99.90
2018-04-29T18:01:53.943Z,99.90
2018-04-29T18:04:21.880Z,99.90
2018-04-29T18:06:49.511Z,99.90
2018-04-29T18:09:17.113Z,99.90
2018-04-29T18:11:44.765Z,99.90
2018-04-29T18:14:12.408Z,99.90
2018-04-29T18:16:40.798Z,99.90
2018-04-29T18:19:09.213Z,99.90
2018-04-29T18:21:36.875Z,99.90
2018-04-29T18:24:04.474Z,99.90
2018-04-29T18:26:32.113Z,99.90
2018-04-29T18:28:59.742Z,99.90
2018-04-29T18:31:27.392Z,99.90
2018-04-29T18:33:54.989Z,99.90
2018-04-29T18:36:22.745Z,99.90
2018-04-29T18:38:51.152Z,99.90
2018-04-29T18:41:18.792Z,99.90
2018-04-29T18:43:46.404Z,99.90
2018-04-29T18:46:14.076Z,99.90
2018-04-29T18:48:41.705Z,99.90
2018-04-29T18:51:09.591Z,99.90
2018-04-29T18:53:37.057Z,99.90
2018-04-29T18:56:04.760Z,99.90
2018-04-29T18:58:33.302Z,99.90
2018-04-29T19:01:01.005Z,99.90
2018-04-29T19:03:29.408Z,99.90
2018-04-29T19:05:59.727Z,99.90
2018-04-29T19:08:27.394Z,99.90
2018-04-29T19:10:55.015Z,99.90
2018-04-29T19:13:23.454Z,99.90
2018-04-29T19:15:51.097Z,99.90
2018-04-29T19:18:18.722Z,99.90
2018-04-29T19:20:46.506Z,99.90
2018-04-29T19:23:14.118Z,99.90
2018-04-29T19:25:42.069Z,99.90
2018-04-29T19:28:10.076Z,99.90
2018-04-29T19:30:37.682Z,99.90
2018-04-29T19:33:06.407Z,99.90
2018-04-29T19:35:34.054Z,99.90
2018-04-29T19:38:02.481Z,99.90
2018-04-29T19:40:30.116Z,99.90
2018-04-29T19:42:58.536Z,99.90
2018-04-29T19:45:26.607Z,99.90
2018-04-29T19:47:54.242Z,99.90
2018-04-29T19:50:21.904Z,99.90
2018-04-29T19:52:50.389Z,99.90
2018-04-29T19:55:19.015Z,99.90
2018-04-29T19:57:47.254Z,99.90
2018-04-29T20:00:15.679Z,99.90
2018-04-29T20:02:43.325Z,99.90
2018-04-29T20:05:10.939Z,99.90
2018-04-29T20:07:38.563Z,99.90
2018-04-29T20:10:06.203Z,99.90
2018-04-29T20:12:34.590Z,99.90
2018-04-29T20:15:02.959Z,99.90
2018-04-29T20:17:30.607Z,99.90
2018-04-29T20:19:58.224Z,99.90
2018-04-29T20:22:25.835Z,99.90
2018-04-29T20:24:53.474Z,99.90
2018-04-29T20:27:21.118Z,99.90
2018-04-29T20:29:48.738Z,99.90
2018-04-29T20:45:45.004Z,99.90
2018-04-29T20:48:13.127Z,99.90
2018-04-29T20:50:40.781Z,99.90
2018-04-29T20:53:08.391Z,99.90
2018-04-29T20:55:36.798Z,99.90
2018-04-29T20:58:04.401Z,99.90
2018-04-29T21:00:32.055Z,99.90
2018-04-29T21:02:59.690Z,99.90
2018-04-29T21:05:27.324Z,99.90
2018-04-29T21:07:55.762Z,99.90
2018-04-29T21:10:23.400Z,99.90
2018-04-29T21:12:51.039Z,99.90
2018-04-29T21:15:19.412Z,99.90
2018-04-29T21:17:47.060Z,99.90
2018-04-29T21:20:14.673Z,99.90
2018-04-29T21:22:42.320Z,99.90
2018-04-29T21:25:09.951Z,99.90
2018-04-29T21:27:37.547Z,99.90
2018-04-29T21:30:05.195Z,99.90
2018-04-29T21:32:32.834Z,99.90
2018-04-29T21:35:00.451Z,99.90
2018-04-29T21:37:28.847Z,99.90
2018-04-29T21:39:57.244Z,99.90
2018-04-29T21:42:25.629Z,99.90
2018-04-29T21:44:53.278Z,99.90
2018-04-29T21:47:21.706Z,99.90
2018-04-29T21:49:49.349Z,99.90
2018-04-29T21:52:16.959Z,99.90
2018-04-29T21:54:44.596Z,99.90
2018-04-29T21:57:12.242Z,99.90
2018-04-29T21:59:40.238Z,99.90
2018-04-29T22:02:07.858Z,99.90
2018-04-29T22:04:36.294Z,99.90
2018-04-29T22:07:03.893Z,99.90
2018-04-29T22:09:31.562Z,99.90
2018-04-29T22:11:59.190Z,99.90
2018-04-29T22:14:26.840Z,99.90
2018-04-29T22:16:54.440Z,99.90
2018-04-29T22:19:22.047Z,99.90
2018-04-29T22:21:50.444Z,99.90
2018-04-29T22:24:18.814Z,99.90
2018-04-29T22:26:47.226Z,99.90
2018-04-29T22:29:14.885Z,99.90
2018-04-29T22:31:42.508Z,99.90
2018-04-29T22:34:10.137Z,99.90
2018-04-29T22:36:37.753Z,99.90
2018-04-29T22:39:05.386Z,99.90
2018-04-29T22:41:33.025Z,99.90
2018-04-29T22:44:00.666Z,99.90
2018-04-29T22:46:29.042Z,99.90
2018-04-29T22:48:56.675Z,99.90
2018-04-29T22:51:24.317Z,99.90
2018-04-29T22:53:51.938Z,99.90
2018-04-29T22:56:20.325Z,99.90
2018-04-29T22:58:48.719Z,99.90
2018-04-29T23:01:17.115Z,99.90
2018-04-29T23:03:44.714Z,99.90
2018-04-29T23:06:12.348Z,99.90
2018-04-29T23:08:39.992Z,99.90
2018-04-29T23:11:07.621Z,99.90
2018-04-29T23:13:35.254Z,99.90
2018-04-29T23:16:03.662Z,99.90
2018-04-29T23:18:31.320Z,99.90
2018-04-29T23:20:58.923Z,99.90
2018-04-29T23:23:26.544Z,99.90
2018-04-29T23:25:54.181Z,99.90
2018-04-29T23:28:22.581Z,99.90
2018-04-29T23:30:50.212Z,99.90
2018-04-29T23:33:18.550Z,99.90
2018-04-29T23:35:46.193Z,99.90
2018-04-29T23:38:13.842Z,99.90
2018-04-29T23:40:42.231Z,99.90
2018-04-29T23:43:10.650Z,99.90
2018-04-29T23:45:38.282Z,99.90
2018-04-29T23:48:06.669Z,99.90
2018-04-29T23:50:34.652Z,99.90
2018-04-29T23:53:02.239Z,99.90
2018-04-29T23:55:29.837Z,99.90
2018-04-29T23:57:57.483Z,99.90
